createdAt,value
2022-11-24T00:01:21.413Z,0.30
2022-11-24T00:03:55.102Z,0.38
2022-11-24T00:06:23.847Z,0.13
2022-11-24T00:08:52.592Z,0.30
2022-11-24T00:11:22.841Z,0.10
2022-11-24T00:13:51.680Z,0.17
2022-11-24T00:16:23.454Z,0.35
2022-11-24T00:18:53.373Z,0.40
2022-11-24T00:21:22.590Z,0.13
2022-11-24T00:23:51.608Z,0.17
2022-11-24T00:26:21.997Z,0.05
2022-11-24T00:28:52.021Z,0.40
2022-11-24T00:31:23.346Z,0.22
2022-11-24T00:33:53.683Z,0.30
2022-11-24T00:36:23.492Z,0.50
2022-11-24T00:38:55.464Z,0.25
2022-11-24T00:41:24.011Z,0.10
2022-11-24T00:43:52.100Z,0.17
2022-11-24T00:46:22.158Z,0.32
2022-11-24T00:48:50.852Z,0.88
2022-11-24T00:51:20.562Z,0.20
2022-11-24T00:53:48.722Z,0.20
2022-11-24T00:56:17.286Z,0.40
2022-11-24T00:58:45.401Z,0.20
2022-11-24T01:01:15.785Z,0.30
2022-11-24T01:03:46.774Z,0.38
2022-11-24T01:06:17.661Z,0.25
2022-11-24T01:08:46.500Z,0.30
2022-11-24T01:11:17.144Z,0.60
2022-11-24T01:13:47.341Z,0.47
2022-11-24T01:16:17.689Z,0.63
2022-11-24T01:18:48.031Z,0.68
2022-11-24T01:21:16.916Z,0.20
2022-11-24T01:23:45.176Z,0.28
2022-11-24T01:26:16.021Z,0.45
2022-11-24T01:28:46.930Z,0.60
2022-11-24T01:31:16.897Z,0.20
2022-11-24T01:33:45.091Z,0.30
2022-11-24T01:36:14.640Z,0.20
2022-11-24T01:38:42.747Z,0.38
2022-11-24T01:41:13.723Z,0.90
2022-11-24T01:43:42.962Z,0.30
2022-11-24T01:46:20.873Z,0.30
2022-11-24T01:48:55.435Z,0.50
2022-11-24T01:51:27.952Z,0.38
2022-11-24T01:54:00.162Z,0.35
2022-11-24T01:56:29.568Z,0.20
2022-11-24T01:59:01.606Z,0.75
2022-11-24T02:01:31.572Z,0.22
2022-11-24T02:04:02.717Z,0.10
2022-11-24T02:06:34.421Z,0.50
2022-11-24T02:09:08.165Z,0.20
2022-11-24T02:14:08.170Z,0.40
2022-11-24T02:16:37.591Z,0.45
2022-11-24T02:19:13.250Z,1.05
2022-11-24T02:21:42.670Z,0.70
2022-11-24T02:24:20.100Z,0.50
2022-11-24T02:26:52.087Z,0.50
2022-11-24T02:29:21.170Z,0.57
2022-11-24T02:31:53.680Z,0.63
2022-11-24T02:34:22.152Z,0.47
2022-11-24T02:36:50.280Z,0.30
2022-11-24T02:39:18.472Z,0.40
2022-11-24T02:41:53.292Z,0.47
2022-11-24T02:44:24.280Z,0.20
2022-11-24T02:47:03.066Z,0.50
2022-11-24T02:49:31.201Z,0.57
2022-11-24T02:51:59.380Z,0.85
2022-11-24T02:54:27.591Z,0.35
2022-11-24T02:56:57.252Z,0.57
2022-11-24T02:59:25.460Z,0.68
2022-11-24T03:01:53.804Z,0.17
2022-11-24T03:04:22.041Z,0.63
2022-11-24T03:06:50.141Z,0.40
2022-11-24T03:09:18.283Z,0.32
2022-11-24T03:11:46.291Z,0.47
2022-11-24T03:14:15.752Z,0.50
2022-11-24T03:16:43.805Z,0.45
2022-11-24T03:19:11.982Z,0.40
2022-11-24T03:21:40.048Z,0.52
2022-11-24T03:24:08.202Z,0.55
2022-11-24T03:26:36.662Z,0.35
2022-11-24T03:29:04.911Z,0.35
2022-11-24T03:31:34.294Z,0.50
2022-11-24T03:34:02.551Z,0.52
2022-11-24T03:36:30.589Z,0.73
2022-11-24T03:38:58.751Z,0.10
2022-11-24T03:41:26.824Z,0.30
2022-11-24T03:43:54.922Z,0.45
2022-11-24T03:46:23.081Z,0.32
2022-11-24T03:48:52.715Z,0.73
2022-11-24T03:51:20.811Z,0.30
2022-11-24T03:53:48.921Z,0.50
2022-11-24T03:56:17.552Z,0.52
2022-11-24T03:58:45.682Z,0.40
2022-11-24T04:01:13.767Z,0.30
2022-11-24T04:03:41.932Z,0.35
2022-11-24T04:06:11.702Z,0.43
2022-11-24T04:08:39.791Z,0.80
2022-11-24T04:11:08.203Z,0.47
2022-11-24T04:13:35.342Z,0.65
2022-11-24T04:16:06.694Z,1.10
2022-11-24T04:18:34.961Z,0.60
2022-11-24T04:21:03.013Z,0.32
2022-11-24T04:23:32.482Z,0.50
2022-11-24T04:26:00.683Z,0.52
2022-11-24T04:28:28.816Z,0.65
2022-11-24T04:30:56.944Z,0.73
2022-11-24T04:33:25.153Z,0.43
2022-11-24T04:35:54.511Z,0.52
2022-11-24T04:39:24.689Z,0.32
2022-11-24T04:41:12.043Z,0.85
2022-11-24T04:43:40.872Z,0.60
2022-11-24T04:46:11.585Z,0.40
2022-11-24T04:48:39.782Z,0.20
2022-11-24T04:51:08.804Z,0.90
2022-11-24T04:53:36.895Z,1.38
2022-11-24T04:56:06.781Z,0.70
2022-11-24T04:58:36.311Z,0.60
2022-11-24T05:01:09.535Z,0.47
2022-11-24T05:03:38.221Z,0.60
2022-11-24T05:06:08.752Z,0.80
2022-11-24T05:08:36.892Z,0.50
2022-11-24T05:11:06.004Z,0.85
2022-11-24T05:13:35.941Z,0.60
2022-11-24T05:16:04.068Z,0.80
2022-11-24T05:18:32.451Z,0.80
2022-11-24T05:21:00.794Z,1.15
2022-11-24T05:23:29.193Z,0.60
2022-11-24T05:26:01.177Z,0.70
2022-11-24T05:28:29.876Z,1.10
2022-11-24T05:31:01.791Z,0.68
2022-11-24T05:33:33.632Z,0.73
2022-11-24T05:36:03.298Z,0.95
2022-11-24T05:38:32.282Z,1.25
2022-11-24T05:41:02.051Z,0.57
2022-11-24T05:43:30.350Z,0.65
2022-11-24T05:46:01.634Z,0.85
2022-11-24T05:48:29.813Z,0.95
2022-11-24T05:50:59.431Z,0.80
2022-11-24T05:53:27.522Z,1.13
2022-11-24T05:55:55.630Z,0.82
2022-11-24T05:58:23.886Z,0.98
2022-11-24T06:00:51.955Z,0.63
2022-11-24T06:03:21.426Z,0.50
2022-11-24T06:05:49.510Z,0.93
2022-11-24T06:08:17.611Z,0.95
2022-11-24T06:10:45.653Z,1.10
2022-11-24T06:13:13.826Z,0.50
2022-11-24T06:15:42.271Z,1.58
2022-11-24T06:18:10.451Z,0.63
2022-11-24T06:20:39.841Z,0.88
2022-11-24T06:23:07.963Z,0.90
2022-11-24T06:25:36.051Z,0.90
2022-11-24T06:28:05.621Z,0.68
2022-11-24T06:30:33.841Z,0.85
2022-11-24T06:33:02.422Z,0.85
2022-11-24T06:35:30.530Z,0.63
2022-11-24T06:38:00.030Z,0.80
2022-11-24T06:40:28.160Z,1.17
2022-11-24T06:42:56.400Z,0.68
2022-11-24T06:45:24.532Z,0.80
2022-11-24T06:47:54.858Z,0.90
2022-11-24T06:50:23.232Z,1.13
2022-11-24T06:52:51.412Z,0.65
2022-11-24T06:55:20.831Z,0.65
2022-11-24T06:57:48.971Z,0.52
2022-11-24T07:00:17.746Z,0.80
2022-11-24T07:02:46.394Z,0.55
2022-11-24T07:05:14.683Z,1.20
2022-11-24T07:07:43.047Z,0.70
2022-11-24T07:10:11.380Z,1.45
2022-11-24T07:12:40.801Z,1.02
2022-11-24T07:15:09.859Z,0.85
2022-11-24T07:17:38.490Z,0.47
2022-11-24T07:20:08.210Z,0.50
2022-11-24T07:22:37.064Z,1.50
2022-11-24T07:25:07.492Z,0.80
2022-11-24T07:27:35.681Z,0.82
2022-11-24T07:30:05.601Z,0.98
2022-11-24T07:32:34.071Z,0.40
2022-11-24T07:35:02.400Z,0.88
2022-11-24T07:37:31.897Z,1.02
2022-11-24T07:40:00.263Z,0.85
2022-11-24T07:42:29.109Z,0.73
2022-11-24T07:44:57.272Z,1.13
2022-11-24T07:47:26.711Z,0.82
2022-11-24T07:49:54.771Z,1.15
2022-11-24T07:52:23.501Z,1.00
2022-11-24T07:54:51.564Z,1.08
2022-11-24T07:57:19.721Z,0.70
2022-11-24T07:59:47.840Z,0.50
2022-11-24T08:02:16.101Z,0.95
2022-11-24T08:04:45.531Z,1.38
2022-11-24T08:07:13.857Z,1.08
2022-11-24T08:09:42.002Z,0.52
2022-11-24T08:12:10.192Z,1.15
2022-11-24T08:14:38.371Z,1.02
2022-11-24T08:17:06.639Z,1.27
2022-11-24T08:19:35.437Z,1.23
2022-11-24T08:22:04.921Z,1.70
2022-11-24T08:24:33.365Z,1.00
2022-11-24T08:27:01.981Z,1.00
2022-11-24T08:29:30.329Z,1.08
2022-11-24T08:31:58.768Z,1.80
2022-11-24T08:34:27.143Z,1.30
2022-11-24T08:36:55.311Z,1.05
2022-11-24T08:39:24.823Z,0.80
2022-11-24T08:41:52.962Z,1.13
2022-11-24T08:44:21.129Z,1.55
2022-11-24T08:46:49.971Z,1.55
2022-11-24T08:49:19.048Z,0.98
2022-11-24T08:51:48.701Z,1.42
2022-11-24T08:54:18.745Z,1.52
2022-11-24T08:56:50.769Z,1.02
2022-11-24T08:59:18.971Z,1.33
2022-11-24T09:01:47.205Z,1.30
2022-11-24T09:04:15.449Z,0.70
2022-11-24T09:06:43.571Z,1.70
2022-11-24T09:09:12.123Z,1.33
2022-11-24T09:11:40.236Z,0.77
2022-11-24T09:14:09.671Z,1.42
2022-11-24T09:16:37.896Z,0.85
2022-11-24T09:19:08.151Z,1.15
2022-11-24T09:21:39.027Z,1.15
2022-11-24T09:24:08.516Z,1.30
2022-11-24T09:26:43.044Z,1.08
2022-11-24T09:29:14.280Z,1.25
2022-11-24T09:31:42.331Z,0.80
2022-11-24T09:34:14.462Z,1.45
2022-11-24T09:36:42.663Z,1.33
2022-11-24T09:39:11.150Z,1.15
2022-11-24T09:41:49.514Z,1.23
2022-11-24T09:44:43.021Z,1.90
2022-11-24T09:47:19.772Z,1.73
2022-11-24T09:49:54.512Z,1.40
2022-11-24T09:52:34.361Z,1.48
2022-11-24T09:55:06.210Z,0.95
2022-11-24T09:57:37.929Z,1.20
2022-11-24T10:00:14.200Z,1.90
2022-11-24T10:02:42.352Z,1.63
2022-11-24T10:05:13.731Z,1.70
2022-11-24T10:07:50.430Z,1.23
2022-11-24T10:10:25.114Z,2.15
2022-11-24T10:13:06.211Z,1.63
2022-11-24T10:15:46.006Z,1.35
2022-11-24T10:18:28.476Z,1.25
2022-11-24T10:21:06.871Z,2.30
2022-11-24T10:23:51.284Z,1.77
2022-11-24T10:26:22.021Z,1.50
2022-11-24T10:28:55.801Z,2.03
2022-11-24T10:34:01.743Z,2.30
2022-11-24T10:36:39.091Z,2.70
2022-11-24T10:39:16.781Z,2.00
2022-11-24T10:41:53.724Z,2.40
2022-11-24T10:44:21.910Z,1.60
2022-11-24T10:46:52.074Z,1.92
2022-11-24T10:49:25.201Z,3.75
2022-11-24T10:52:05.160Z,1.52
2022-11-24T10:54:35.671Z,1.73
2022-11-24T10:57:04.294Z,1.65
2022-11-24T10:59:38.939Z,1.60
2022-11-24T11:02:29.988Z,3.22
2022-11-24T11:04:58.712Z,1.48
2022-11-24T11:07:28.139Z,2.13
2022-11-24T11:10:29.321Z,1.77
2022-11-24T11:12:57.502Z,3.28
2022-11-24T11:15:29.705Z,2.05
2022-11-24T11:18:01.502Z,1.75
2022-11-24T11:20:32.781Z,3.15
2022-11-24T11:23:04.373Z,2.35
2022-11-24T11:25:35.061Z,2.65
2022-11-24T11:28:24.122Z,1.58
2022-11-24T11:31:21.997Z,2.67
2022-11-24T11:34:06.237Z,2.95
2022-11-24T11:36:42.380Z,2.70
2022-11-24T11:39:22.986Z,2.03
2022-11-24T11:41:55.061Z,2.45
2022-11-24T11:44:33.666Z,2.13
2022-11-24T11:47:12.762Z,2.83
2022-11-24T11:49:42.361Z,1.95
2022-11-24T11:52:33.731Z,2.10
2022-11-24T11:55:17.272Z,1.90
2022-11-24T11:57:55.294Z,1.95
2022-11-24T12:00:23.751Z,3.35
2022-11-24T12:03:11.695Z,1.38
2022-11-24T12:05:51.885Z,2.10
2022-11-24T12:08:31.340Z,1.63
2022-11-24T12:11:13.490Z,2.28
2022-11-24T12:13:52.554Z,1.15
2022-11-24T12:16:35.402Z,1.67
2022-11-24T12:19:20.699Z,0.90
2022-11-24T12:21:59.081Z,1.30
2022-11-24T12:24:37.409Z,1.83
2022-11-24T12:27:11.261Z,1.90
2022-11-24T12:32:35.170Z,1.55
2022-11-24T12:35:17.150Z,1.63
2022-11-24T12:37:58.640Z,1.20
2022-11-24T12:40:43.629Z,1.63
2022-11-24T12:43:23.501Z,1.23
2022-11-24T12:45:59.183Z,1.83
2022-11-24T12:48:40.593Z,1.98
2022-11-24T12:51:16.986Z,1.75
2022-11-24T12:53:49.230Z,2.13
2022-11-24T12:56:20.312Z,1.83
2022-11-24T12:58:55.690Z,1.70
2022-11-24T13:01:32.945Z,1.95
2022-11-24T13:04:12.063Z,2.33
2022-11-24T13:06:51.094Z,1.73
2022-11-24T13:09:21.012Z,2.40
2022-11-24T13:11:50.123Z,1.30
2022-11-24T13:14:22.713Z,1.20
2022-11-24T13:17:21.875Z,1.65
2022-11-24T13:19:42.000Z,0.95
2022-11-24T13:22:19.570Z,2.15
2022-11-24T13:25:13.409Z,3.05
2022-11-24T13:27:44.473Z,1.17
2022-11-24T13:30:52.372Z,1.73
2022-11-24T13:33:36.262Z,2.28
2022-11-24T13:36:53.668Z,1.27
2022-11-24T13:39:22.948Z,1.92
2022-11-24T13:42:06.721Z,2.25
2022-11-24T13:44:54.510Z,1.00
2022-11-24T13:47:42.871Z,1.20
2022-11-24T13:50:15.871Z,1.35
2022-11-24T13:52:50.190Z,1.58
2022-11-24T13:55:23.967Z,1.15
2022-11-24T14:00:26.410Z,1.02
2022-11-24T14:02:58.955Z,1.95
2022-11-24T14:05:34.995Z,1.20
2022-11-24T14:08:03.740Z,0.90
2022-11-24T14:10:35.338Z,1.10
2022-11-24T14:13:27.607Z,1.10
2022-11-24T14:16:04.309Z,1.45
2022-11-24T14:18:33.230Z,1.20
2022-11-24T14:21:15.979Z,1.85
2022-11-24T14:23:46.910Z,1.30
2022-11-24T14:26:21.467Z,0.75
2022-11-24T14:28:51.928Z,0.70
2022-11-24T14:31:23.688Z,1.20
2022-11-24T14:34:04.188Z,0.63
2022-11-24T14:36:32.450Z,0.90
2022-11-24T14:39:01.406Z,0.77
2022-11-24T14:41:29.698Z,1.20
2022-11-24T14:44:20.470Z,0.90
2022-11-24T14:46:49.197Z,0.50
2022-11-24T14:49:20.929Z,0.63
2022-11-24T14:51:57.202Z,1.33
2022-11-24T14:54:26.040Z,0.30
2022-11-24T14:56:58.973Z,0.57
2022-11-24T14:59:30.007Z,0.50
2022-11-24T15:01:59.600Z,0.60
2022-11-24T15:07:24.170Z,0.52
2022-11-24T15:09:54.420Z,0.22
2022-11-24T15:12:29.255Z,0.50
2022-11-24T15:15:02.393Z,0.10
2022-11-24T15:17:31.575Z,0.35
2022-11-24T15:20:04.881Z,0.28
2022-11-24T15:22:38.401Z,0.28
2022-11-24T15:25:29.136Z,0.68
2022-11-24T15:27:57.610Z,0.52
2022-11-24T15:30:27.663Z,0.55
2022-11-24T15:32:57.525Z,0.30
2022-11-24T15:35:26.950Z,0.22
2022-11-24T15:37:55.058Z,0.32
2022-11-24T15:40:23.570Z,0.68
2022-11-24T15:42:53.460Z,0.82
2022-11-24T15:45:22.969Z,1.70
2022-11-24T15:47:52.489Z,1.00
2022-11-24T15:50:21.848Z,0.88
2022-11-24T15:52:50.439Z,0.95
2022-11-24T15:55:21.409Z,0.80
2022-11-24T15:57:50.420Z,0.90
2022-11-24T16:00:20.601Z,1.08
2022-11-24T16:02:49.111Z,0.88
2022-11-24T16:05:19.290Z,1.30
2022-11-24T16:07:47.441Z,0.85
2022-11-24T16:10:23.497Z,1.17
2022-11-24T16:12:51.651Z,0.85
2022-11-24T16:15:19.700Z,0.90
2022-11-24T16:17:48.082Z,0.70
2022-11-24T16:20:16.721Z,1.00
2022-11-24T16:22:46.792Z,0.50
2022-11-24T16:25:15.541Z,1.15
2022-11-24T16:27:43.922Z,1.08
2022-11-24T16:30:14.290Z,1.33
2022-11-24T16:32:42.472Z,0.85
2022-11-24T16:35:10.772Z,1.15
2022-11-24T16:37:38.984Z,0.80
2022-11-24T16:40:09.559Z,0.82
2022-11-24T16:42:37.701Z,0.93
2022-11-24T16:45:06.833Z,0.57
2022-11-24T16:47:40.132Z,1.20
2022-11-24T16:50:09.147Z,0.90
2022-11-24T16:52:37.680Z,0.70
2022-11-24T16:55:06.248Z,0.52
2022-11-24T16:57:37.037Z,1.15
2022-11-24T17:00:06.160Z,0.65
2022-11-24T17:02:35.546Z,0.88
2022-11-24T17:05:03.783Z,1.13
2022-11-24T17:07:32.003Z,0.43
2022-11-24T17:10:00.920Z,0.50
2022-11-24T17:12:29.058Z,0.88
2022-11-24T17:15:30.480Z,0.88
2022-11-24T17:18:16.184Z,0.63
2022-11-24T17:20:36.151Z,1.08
2022-11-24T17:23:04.221Z,0.65
2022-11-24T17:25:33.556Z,1.30
2022-11-24T17:28:01.570Z,1.13
2022-11-24T17:30:31.020Z,0.65
2022-11-24T17:32:59.122Z,0.80
2022-11-24T17:35:27.204Z,0.38
2022-11-24T17:37:57.064Z,0.70
2022-11-24T17:40:29.492Z,0.75
2022-11-24T17:42:59.947Z,1.58
2022-11-24T17:45:28.675Z,0.80
2022-11-24T17:47:59.569Z,0.75
2022-11-24T17:50:27.807Z,0.40
2022-11-24T17:52:55.892Z,0.98
2022-11-24T17:55:24.031Z,0.68
2022-11-24T17:57:52.530Z,0.77
2022-11-24T18:00:21.100Z,0.60
2022-11-24T18:02:49.315Z,1.30
2022-11-24T18:05:18.968Z,1.55
2022-11-24T18:07:47.199Z,0.75
2022-11-24T18:10:15.601Z,0.60
2022-11-24T18:12:43.701Z,0.95
2022-11-24T18:15:12.342Z,1.13
2022-11-24T18:17:40.481Z,0.90
2022-11-24T18:20:09.395Z,0.77
2022-11-24T18:25:27.049Z,1.25
2022-11-24T18:27:55.140Z,1.13
2022-11-24T18:30:23.310Z,1.08
2022-11-24T18:32:51.450Z,0.80
2022-11-24T18:35:19.569Z,0.95
2022-11-24T18:37:49.009Z,0.63
2022-11-24T18:40:17.282Z,1.08
2022-11-24T18:42:45.430Z,2.70
2022-11-24T18:45:13.570Z,0.93
2022-11-24T18:47:41.669Z,1.30
2022-11-24T18:50:10.660Z,0.75
2022-11-24T18:52:38.730Z,1.25
2022-11-24T18:55:08.699Z,0.82
2022-11-24T18:57:36.859Z,0.75
2022-11-24T19:00:06.030Z,1.52
2022-11-24T19:02:34.136Z,1.85
2022-11-24T19:05:03.080Z,0.90
2022-11-24T19:07:31.226Z,1.10
2022-11-24T19:09:59.340Z,0.85
2022-11-24T19:12:28.760Z,1.35
2022-11-24T19:14:56.971Z,1.15
2022-11-24T19:17:25.020Z,1.08
2022-11-24T19:19:53.416Z,1.10
2022-11-24T19:22:21.812Z,1.25
2022-11-24T19:24:50.853Z,1.15
2022-11-24T19:27:21.085Z,1.17
2022-11-24T19:29:50.517Z,0.43
2022-11-24T19:32:19.556Z,0.75
2022-11-24T19:34:47.719Z,1.05
2022-11-24T19:37:16.126Z,0.65
2022-11-24T19:39:44.264Z,1.05
2022-11-24T19:42:12.310Z,0.60
2022-11-24T19:44:40.462Z,0.38
2022-11-24T19:47:09.843Z,0.70
2022-11-24T19:49:38.019Z,0.80
2022-11-24T19:52:06.221Z,0.50
2022-11-24T19:54:35.727Z,0.55
2022-11-24T19:57:03.962Z,0.77
2022-11-24T19:59:32.138Z,1.20
2022-11-24T20:02:02.576Z,0.85
2022-11-24T20:04:33.353Z,0.68
2022-11-24T20:07:01.848Z,1.00
2022-11-24T20:09:29.910Z,0.63
2022-11-24T20:11:58.793Z,1.20
2022-11-24T20:14:26.910Z,0.60
2022-11-24T20:16:55.070Z,1.02
2022-11-24T20:19:23.441Z,1.08
2022-11-24T20:21:54.029Z,0.77
2022-11-24T20:24:24.773Z,1.00
2022-11-24T20:26:56.270Z,1.35
2022-11-24T20:29:24.543Z,0.88
2022-11-24T20:31:54.840Z,0.68
2022-11-24T20:34:23.570Z,0.98
2022-11-24T20:36:53.930Z,0.63
2022-11-24T20:39:25.464Z,1.00
2022-11-24T20:41:55.145Z,1.30
2022-11-24T20:44:26.585Z,1.25
2022-11-24T20:46:56.772Z,1.48
2022-11-24T20:49:25.129Z,0.52
2022-11-24T20:51:57.974Z,1.50
2022-11-24T20:54:26.241Z,1.23
2022-11-24T20:56:54.350Z,1.45
2022-11-24T20:59:24.713Z,1.42
2022-11-24T21:01:55.289Z,1.08
2022-11-24T21:04:25.911Z,0.80
2022-11-24T21:06:55.765Z,0.77
2022-11-24T21:09:24.766Z,1.35
2022-11-24T21:11:52.791Z,1.15
2022-11-24T21:14:20.900Z,0.95
2022-11-24T21:16:49.056Z,0.85
2022-11-24T21:19:18.822Z,1.08
2022-11-24T21:21:47.788Z,1.17
2022-11-24T21:24:18.870Z,2.53
2022-11-24T21:26:48.281Z,0.93
2022-11-24T21:29:19.501Z,0.60
2022-11-24T21:31:47.865Z,0.63
2022-11-24T21:34:18.622Z,1.55
2022-11-24T21:36:47.290Z,0.50
2022-11-24T21:39:17.676Z,0.70
2022-11-24T21:41:45.880Z,0.60
2022-11-24T21:44:14.789Z,1.27
2022-11-24T21:46:48.202Z,0.90
2022-11-24T21:49:17.730Z,1.20
2022-11-24T21:51:45.783Z,1.52
2022-11-24T21:54:13.881Z,1.10
2022-11-24T21:56:43.260Z,0.93
2022-11-24T21:59:11.421Z,0.88
2022-11-24T22:01:39.593Z,1.23
2022-11-24T22:04:07.720Z,1.23
2022-11-24T22:06:35.790Z,1.10
2022-11-24T22:09:03.859Z,1.92
2022-11-24T22:11:31.930Z,1.25
2022-11-24T22:14:01.450Z,1.40
2022-11-24T22:16:29.811Z,0.95
2022-11-24T22:19:00.540Z,1.27
2022-11-24T22:21:30.840Z,0.73
2022-11-24T22:23:59.341Z,0.82
2022-11-24T22:26:28.439Z,0.70
2022-11-24T22:28:58.020Z,1.00
2022-11-24T22:31:28.974Z,1.40
2022-11-24T22:33:57.922Z,0.90
2022-11-24T22:36:27.771Z,0.85
2022-11-24T22:38:56.776Z,0.55
2022-11-24T22:41:25.569Z,1.15
2022-11-24T22:43:54.631Z,0.88
2022-11-24T22:46:24.381Z,1.52
2022-11-24T22:48:54.995Z,1.23
2022-11-24T22:51:26.439Z,1.35
2022-11-24T22:53:56.619Z,0.75
2022-11-24T22:56:27.866Z,0.63
2022-11-24T22:58:56.300Z,1.20
2022-11-24T23:01:26.349Z,0.55
2022-11-24T23:03:56.034Z,0.82
2022-11-24T23:06:28.732Z,0.98
2022-11-24T23:08:58.889Z,0.52
2022-11-24T23:11:34.832Z,0.75
2022-11-24T23:14:05.370Z,0.43
2022-11-24T23:16:33.562Z,1.27
2022-11-24T23:19:03.066Z,0.85
2022-11-24T23:21:32.980Z,0.38
2022-11-24T23:24:03.030Z,0.90
2022-11-24T23:26:33.061Z,0.90
2022-11-24T23:29:01.470Z,0.57
2022-11-24T23:31:30.205Z,0.68
2022-11-24T23:33:59.423Z,0.85
2022-11-24T23:36:30.049Z,1.13
2022-11-24T23:39:02.101Z,0.93
2022-11-24T23:41:31.584Z,0.55
2022-11-24T23:44:00.159Z,0.75
2022-11-24T23:46:29.447Z,0.60
2022-11-24T23:48:58.151Z,0.77
2022-11-24T23:51:29.219Z,0.70
2022-11-24T23:53:58.179Z,1.50
2022-11-24T23:56:28.179Z,0.43
2022-11-24T23:58:56.261Z,0.75
